aviador You're here:

SADF Decoded Metar

SAN FERNANDO in ARGENTINA
Report Time2017-10-22 17:00:00
UTC Time2017-10-22 17:12:53
Flight Rules vfr VFR
Wind140° at 05 kt
W.Decomp.*RWY 23: 0.7 kt HW 5 kt LCW
W.Rank140° ranks 5
Current wind is below 140° avg. (6.3)
Visibility9999 m
Phenomena:N/A
Clouds:N/A
Expected CloudBase > 5,600 ft AGL from Temp-Dew spread
CeilingNone
Temp16°C (ISA +1)
Dew Point02°C (39% RH)
AAT12.5°C
QNH1023 hPa
Density Alt-105 ft
Elevation13 ft
Report Wrong Elevation
Raw Report
METAR COR SADF 221700Z 14005KT 090V210 CAVOK 16/02 Q1023=

Extra information for SADF:More info

Metar Taf Metar & Taf Last 4 Metars F.Rules Stats Wind Profile Meteogram Temp Stats Airport Information Weather charts Add Link Nearby VenuesMetar ALERT Operation Metar Decoded Social comments